sensor_id;sensor_type;location;lat;lon;timestamp;temperature;humidity
11214;DHT22;5664;48.606;13.456;2023-05-20T00:00:13;17.30;74.90
11214;DHT22;5664;48.606;13.456;2023-05-20T00:02:38;17.30;74.90
11214;DHT22;5664;48.606;13.456;2023-05-20T00:05:04;17.30;74.90
11214;DHT22;5664;48.606;13.456;2023-05-20T00:07:29;17.30;74.90
11214;DHT22;5664;48.606;13.456;2023-05-20T00:09:55;17.30;74.90
11214;DHT22;5664;48.606;13.456;2023-05-20T00:12:20;17.30;75.00
11214;DHT22;5664;48.606;13.456;2023-05-20T00:14:46;17.30;74.90
11214;DHT22;5664;48.606;13.456;2023-05-20T00:17:11;17.30;74.90
11214;DHT22;5664;48.606;13.456;2023-05-20T00:19:36;17.30;75.00
11214;DHT22;5664;48.606;13.456;2023-05-20T00:22:02;17.30;74.90
11214;DHT22;5664;48.606;13.456;2023-05-20T00:24:27;17.30;74.90
11214;DHT22;5664;48.606;13.456;2023-05-20T00:26:53;17.30;75.00
11214;DHT22;5664;48.606;13.456;2023-05-20T00:29:19;17.30;74.90
11214;DHT22;5664;48.606;13.456;2023-05-20T00:31:45;17.30;74.90
11214;DHT22;5664;48.606;13.456;2023-05-20T00:34:10;17.30;74.90
11214;DHT22;5664;48.606;13.456;2023-05-20T00:36:35;17.30;75.00
11214;DHT22;5664;48.606;13.456;2023-05-20T00:39:01;17.30;75.00
11214;DHT22;5664;48.606;13.456;2023-05-20T00:41:26;17.30;75.00
11214;DHT22;5664;48.606;13.456;2023-05-20T00:43:52;17.30;75.00
11214;DHT22;5664;48.606;13.456;2023-05-20T00:46:19;17.30;75.00
11214;DHT22;5664;48.606;13.456;2023-05-20T00:48:44;17.30;74.90
11214;DHT22;5664;48.606;13.456;2023-05-20T00:51:10;17.30;74.90
11214;DHT22;5664;48.606;13.456;2023-05-20T00:53:37;17.30;74.90
11214;DHT22;5664;48.606;13.456;2023-05-20T00:56:03;17.20;74.80
11214;DHT22;5664;48.606;13.456;2023-05-20T00:58:28;17.30;74.80
11214;DHT22;5664;48.606;13.456;2023-05-20T01:00:55;17.30;74.90
11214;DHT22;5664;48.606;13.456;2023-05-20T01:03:20;17.30;74.80
11214;DHT22;5664;48.606;13.456;2023-05-20T01:05:46;17.30;74.80
11214;DHT22;5664;48.606;13.456;2023-05-20T01:08:11;17.20;74.70
11214;DHT22;5664;48.606;13.456;2023-05-20T01:10:38;17.30;74.80
11214;DHT22;5664;48.606;13.456;2023-05-20T01:13:06;17.20;74.70
11214;DHT22;5664;48.606;13.456;2023-05-20T01:15:32;17.30;74.80
11214;DHT22;5664;48.606;13.456;2023-05-20T01:18:00;17.20;74.80
11214;DHT22;5664;48.606;13.456;2023-05-20T01:20:27;17.20;74.70
11214;DHT22;5664;48.606;13.456;2023-05-20T01:22:53;17.30;74.80
11214;DHT22;5664;48.606;13.456;2023-05-20T01:25:19;17.30;74.80
11214;DHT22;5664;48.606;13.456;2023-05-20T01:27:44;17.30;74.80
11214;DHT22;5664;48.606;13.456;2023-05-20T01:30:11;17.30;74.80
11214;DHT22;5664;48.606;13.456;2023-05-20T01:32:40;17.30;74.80
11214;DHT22;5664;48.606;13.456;2023-05-20T01:35:07;17.20;74.80
11214;DHT22;5664;48.606;13.456;2023-05-20T01:37:33;17.20;74.80
11214;DHT22;5664;48.606;13.456;2023-05-20T01:40:00;17.20;74.80
11214;DHT22;5664;48.606;13.456;2023-05-20T01:42:25;17.20;74.90
11214;DHT22;5664;48.606;13.456;2023-05-20T01:44:51;17.30;74.90
11214;DHT22;5664;48.606;13.456;2023-05-20T01:47:16;17.30;74.90
11214;DHT22;5664;48.606;13.456;2023-05-20T01:49:42;17.30;74.90
11214;DHT22;5664;48.606;13.456;2023-05-20T01:52:10;17.20;74.80
11214;DHT22;5664;48.606;13.456;2023-05-20T01:54:35;17.20;74.80
11214;DHT22;5664;48.606;13.456;2023-05-20T01:57:01;17.20;74.80
11214;DHT22;5664;48.606;13.456;2023-05-20T01:59:27;17.20;74.70
11214;DHT22;5664;48.606;13.456;2023-05-20T02:01:52;18.40;75.60
11214;DHT22;5664;48.606;13.456;2023-05-20T02:04:18;17.20;74.80
11214;DHT22;5664;48.606;13.456;2023-05-20T02:06:43;17.20;74.80
11214;DHT22;5664;48.606;13.456;2023-05-20T02:09:09;17.20;74.80
11214;DHT22;5664;48.606;13.456;2023-05-20T02:11:35;17.20;74.80
11214;DHT22;5664;48.606;13.456;2023-05-20T02:14:01;17.20;74.80
11214;DHT22;5664;48.606;13.456;2023-05-20T02:16:26;17.20;74.80
11214;DHT22;5664;48.606;13.456;2023-05-20T02:18:51;17.20;74.80
11214;DHT22;5664;48.606;13.456;2023-05-20T02:21:17;17.20;74.80
11214;DHT22;5664;48.606;13.456;2023-05-20T02:23:42;17.20;74.80
11214;DHT22;5664;48.606;13.456;2023-05-20T02:26:08;17.30;74.90
11214;DHT22;5664;48.606;13.456;2023-05-20T02:28:33;17.20;74.90
11214;DHT22;5664;48.606;13.456;2023-05-20T02:30:59;17.20;74.90
11214;DHT22;5664;48.606;13.456;2023-05-20T02:33:25;17.20;74.80
11214;DHT22;5664;48.606;13.456;2023-05-20T02:35:53;17.20;74.80
11214;DHT22;5664;48.606;13.456;2023-05-20T02:38:18;17.20;74.80
11214;DHT22;5664;48.606;13.456;2023-05-20T02:40:44;17.20;74.80
11214;DHT22;5664;48.606;13.456;2023-05-20T02:43:09;17.20;74.80
11214;DHT22;5664;48.606;13.456;2023-05-20T02:45:35;17.20;74.80
11214;DHT22;5664;48.606;13.456;2023-05-20T02:48:00;17.20;74.70
11214;DHT22;5664;48.606;13.456;2023-05-20T02:50:26;17.20;74.70
11214;DHT22;5664;48.606;13.456;2023-05-20T02:52:51;17.20;74.70
11214;DHT22;5664;48.606;13.456;2023-05-20T02:55:17;17.20;74.60
11214;DHT22;5664;48.606;13.456;2023-05-20T02:57:42;17.20;74.60
11214;DHT22;5664;48.606;13.456;2023-05-20T03:00:08;17.20;74.60
11214;DHT22;5664;48.606;13.456;2023-05-20T03:02:37;17.20;74.60
11214;DHT22;5664;48.606;13.456;2023-05-20T03:05:03;17.20;74.60
11214;DHT22;5664;48.606;13.456;2023-05-20T03:07:29;17.20;74.70
11214;DHT22;5664;48.606;13.456;2023-05-20T03:09:58;17.20;74.70
11214;DHT22;5664;48.606;13.456;2023-05-20T03:12:24;17.10;74.60
11214;DHT22;5664;48.606;13.456;2023-05-20T03:14:50;17.10;74.60
11214;DHT22;5664;48.606;13.456;2023-05-20T03:17:19;17.20;74.70
11214;DHT22;5664;48.606;13.456;2023-05-20T03:19:45;17.20;74.70
11214;DHT22;5664;48.606;13.456;2023-05-20T03:22:10;17.20;74.70
11214;DHT22;5664;48.606;13.456;2023-05-20T03:24:36;17.20;74.70
11214;DHT22;5664;48.606;13.456;2023-05-20T03:27:01;17.20;74.70
11214;DHT22;5664;48.606;13.456;2023-05-20T03:29:27;17.20;74.70
11214;DHT22;5664;48.606;13.456;2023-05-20T03:31:52;17.20;74.80
11214;DHT22;5664;48.606;13.456;2023-05-20T03:34:18;17.10;74.70
11214;DHT22;5664;48.606;13.456;2023-05-20T03:36:43;17.10;74.70
11214;DHT22;5664;48.606;13.456;2023-05-20T03:39:09;17.10;74.70
11214;DHT22;5664;48.606;13.456;2023-05-20T03:41:34;17.20;74.80
11214;DHT22;5664;48.606;13.456;2023-05-20T03:44:00;17.10;74.80
11214;DHT22;5664;48.606;13.456;2023-05-20T03:46:25;17.20;74.80
11214;DHT22;5664;48.606;13.456;2023-05-20T03:48:50;17.20;74.80
11214;DHT22;5664;48.606;13.456;2023-05-20T03:51:16;17.20;74.80
11214;DHT22;5664;48.606;13.456;2023-05-20T03:53:41;17.20;74.80
11214;DHT22;5664;48.606;13.456;2023-05-20T03:56:07;17.10;74.70
11214;DHT22;5664;48.606;13.456;2023-05-20T03:58:32;17.20;74.80
11214;DHT22;5664;48.606;13.456;2023-05-20T04:00:58;17.20;74.70
11214;DHT22;5664;48.606;13.456;2023-05-20T04:03:23;17.20;74.70
11214;DHT22;5664;48.606;13.456;2023-05-20T04:05:49;17.20;74.70
11214;DHT22;5664;48.606;13.456;2023-05-20T04:08:14;17.20;74.60
11214;DHT22;5664;48.606;13.456;2023-05-20T04:10:40;17.20;74.60
11214;DHT22;5664;48.606;13.456;2023-05-20T04:13:07;17.10;74.50
11214;DHT22;5664;48.606;13.456;2023-05-20T04:15:35;17.20;74.60
11214;DHT22;5664;48.606;13.456;2023-05-20T04:18:01;17.20;74.50
11214;DHT22;5664;48.606;13.456;2023-05-20T04:20:27;17.20;74.40
11214;DHT22;5664;48.606;13.456;2023-05-20T04:22:52;17.10;74.30
11214;DHT22;5664;48.606;13.456;2023-05-20T04:25:18;17.10;74.30
11214;DHT22;5664;48.606;13.456;2023-05-20T04:27:44;17.20;74.40
11214;DHT22;5664;48.606;13.456;2023-05-20T04:30:09;17.20;74.40
11214;DHT22;5664;48.606;13.456;2023-05-20T04:32:35;17.20;74.30
11214;DHT22;5664;48.606;13.456;2023-05-20T04:35:01;17.20;74.30
11214;DHT22;5664;48.606;13.456;2023-05-20T04:37:27;17.20;74.30
11214;DHT22;5664;48.606;13.456;2023-05-20T04:39:53;17.10;74.30
11214;DHT22;5664;48.606;13.456;2023-05-20T04:42:19;17.20;74.30
11214;DHT22;5664;48.606;13.456;2023-05-20T04:44:47;17.20;74.20
11214;DHT22;5664;48.606;13.456;2023-05-20T04:47:13;17.20;74.10
11214;DHT22;5664;48.606;13.456;2023-05-20T04:49:39;17.20;73.90
11214;DHT22;5664;48.606;13.456;2023-05-20T04:52:04;17.20;73.80
11214;DHT22;5664;48.606;13.456;2023-05-20T04:54:30;17.20;73.80
11214;DHT22;5664;48.606;13.456;2023-05-20T04:56:57;17.20;73.70
11214;DHT22;5664;48.606;13.456;2023-05-20T04:59:23;17.20;73.70
11214;DHT22;5664;48.606;13.456;2023-05-20T05:01:48;17.20;73.60
11214;DHT22;5664;48.606;13.456;2023-05-20T05:04:14;17.20;73.60
11214;DHT22;5664;48.606;13.456;2023-05-20T05:06:39;17.20;73.60
11214;DHT22;5664;48.606;13.456;2023-05-20T05:09:05;17.30;73.70
11214;DHT22;5664;48.606;13.456;2023-05-20T05:11:30;17.20;73.60
11214;DHT22;5664;48.606;13.456;2023-05-20T05:13:56;17.20;73.60
11214;DHT22;5664;48.606;13.456;2023-05-20T05:16:21;17.70;74.00
11214;DHT22;5664;48.606;13.456;2023-05-20T05:18:47;17.20;73.60
11214;DHT22;5664;48.606;13.456;2023-05-20T05:21:12;17.30;73.60
11214;DHT22;5664;48.606;13.456;2023-05-20T05:23:38;17.30;73.60
11214;DHT22;5664;48.606;13.456;2023-05-20T05:26:03;17.30;73.50
11214;DHT22;5664;48.606;13.456;2023-05-20T05:28:29;17.30;73.60
11214;DHT22;5664;48.606;13.456;2023-05-20T05:30:54;17.40;73.60
11214;DHT22;5664;48.606;13.456;2023-05-20T05:33:20;17.30;73.50
11214;DHT22;5664;48.606;13.456;2023-05-20T05:35:46;17.30;73.50
11214;DHT22;5664;48.606;13.456;2023-05-20T05:38:11;17.40;73.60
11214;DHT22;5664;48.606;13.456;2023-05-20T05:40:37;17.40;73.60
11214;DHT22;5664;48.606;13.456;2023-05-20T05:43:02;17.40;73.50
11214;DHT22;5664;48.606;13.456;2023-05-20T05:45:28;17.40;73.50
11214;DHT22;5664;48.606;13.456;2023-05-20T05:47:53;17.40;73.40
11214;DHT22;5664;48.606;13.456;2023-05-20T05:50:19;17.50;73.50
11214;DHT22;5664;48.606;13.456;2023-05-20T05:52:44;17.50;73.50
11214;DHT22;5664;48.606;13.456;2023-05-20T05:55:10;17.50;73.50
11214;DHT22;5664;48.606;13.456;2023-05-20T05:57:36;17.50;73.50
11214;DHT22;5664;48.606;13.456;2023-05-20T06:00:02;17.50;73.40
11214;DHT22;5664;48.606;13.456;2023-05-20T06:02:27;17.50;73.40
11214;DHT22;5664;48.606;13.456;2023-05-20T06:04:53;17.50;73.40
11214;DHT22;5664;48.606;13.456;2023-05-20T06:07:18;17.50;73.40
11214;DHT22;5664;48.606;13.456;2023-05-20T06:09:44;17.50;73.40
11214;DHT22;5664;48.606;13.456;2023-05-20T06:12:09;17.60;73.40
11214;DHT22;5664;48.606;13.456;2023-05-20T06:14:35;17.60;73.30
11214;DHT22;5664;48.606;13.456;2023-05-20T06:17:00;17.60;73.30
11214;DHT22;5664;48.606;13.456;2023-05-20T06:19:26;17.60;73.30
11214;DHT22;5664;48.606;13.456;2023-05-20T06:21:52;17.60;73.30
11214;DHT22;5664;48.606;13.456;2023-05-20T06:24:17;17.60;73.40
11214;DHT22;5664;48.606;13.456;2023-05-20T06:26:43;17.60;73.30
11214;DHT22;5664;48.606;13.456;2023-05-20T06:29:10;17.60;73.30
11214;DHT22;5664;48.606;13.456;2023-05-20T06:31:35;17.60;73.30
11214;DHT22;5664;48.606;13.456;2023-05-20T06:34:01;17.70;73.30
11214;DHT22;5664;48.606;13.456;2023-05-20T06:36:26;17.70;73.40
11214;DHT22;5664;48.606;13.456;2023-05-20T06:38:52;17.70;73.40
11214;DHT22;5664;48.606;13.456;2023-05-20T06:41:18;17.70;73.30
11214;DHT22;5664;48.606;13.456;2023-05-20T06:43:43;17.80;73.40
11214;DHT22;5664;48.606;13.456;2023-05-20T06:46:09;17.80;73.50
11214;DHT22;5664;48.606;13.456;2023-05-20T06:48:34;17.80;73.50
11214;DHT22;5664;48.606;13.456;2023-05-20T06:51:00;17.80;73.40
11214;DHT22;5664;48.606;13.456;2023-05-20T06:53:25;17.80;73.50
11214;DHT22;5664;48.606;13.456;2023-05-20T06:55:54;17.50;73.30
11214;DHT22;5664;48.606;13.456;2023-05-20T06:58:20;17.80;73.50
11214;DHT22;5664;48.606;13.456;2023-05-20T07:00:46;17.90;73.60
11214;DHT22;5664;48.606;13.456;2023-05-20T07:03:11;17.80;73.50
11214;DHT22;5664;48.606;13.456;2023-05-20T07:05:37;17.80;73.60
11214;DHT22;5664;48.606;13.456;2023-05-20T07:08:02;17.80;73.60
11214;DHT22;5664;48.606;13.456;2023-05-20T07:10:28;17.90;73.70
11214;DHT22;5664;48.606;13.456;2023-05-20T07:12:53;17.90;73.80
11214;DHT22;5664;48.606;13.456;2023-05-20T07:15:19;17.90;73.80
11214;DHT22;5664;48.606;13.456;2023-05-20T07:17:44;17.90;73.80
11214;DHT22;5664;48.606;13.456;2023-05-20T07:20:10;17.90;73.80
11214;DHT22;5664;48.606;13.456;2023-05-20T07:22:35;17.90;73.80
11214;DHT22;5664;48.606;13.456;2023-05-20T07:25:01;17.90;73.90
11214;DHT22;5664;48.606;13.456;2023-05-20T07:27:27;17.90;73.90
11214;DHT22;5664;48.606;13.456;2023-05-20T07:29:53;17.90;73.90
11214;DHT22;5664;48.606;13.456;2023-05-20T07:32:18;17.90;74.00
11214;DHT22;5664;48.606;13.456;2023-05-20T07:34:43;17.90;74.00
11214;DHT22;5664;48.606;13.456;2023-05-20T07:37:09;17.90;74.10
11214;DHT22;5664;48.606;13.456;2023-05-20T07:39:37;17.90;74.10
11214;DHT22;5664;48.606;13.456;2023-05-20T07:42:02;18.00;74.20
11214;DHT22;5664;48.606;13.456;2023-05-20T07:44:28;17.90;74.20
11214;DHT22;5664;48.606;13.456;2023-05-20T07:46:54;17.90;74.30
11214;DHT22;5664;48.606;13.456;2023-05-20T07:49:19;17.90;74.30
11214;DHT22;5664;48.606;13.456;2023-05-20T07:51:45;17.90;74.40
11214;DHT22;5664;48.606;13.456;2023-05-20T07:54:11;17.90;74.70
11214;DHT22;5664;48.606;13.456;2023-05-20T07:56:36;17.90;74.90
11214;DHT22;5664;48.606;13.456;2023-05-20T07:59:02;18.00;75.00
11214;DHT22;5664;48.606;13.456;2023-05-20T08:01:28;18.00;75.10
11214;DHT22;5664;48.606;13.456;2023-05-20T08:03:53;18.00;75.10
11214;DHT22;5664;48.606;13.456;2023-05-20T08:06:19;17.90;75.10
11214;DHT22;5664;48.606;13.456;2023-05-20T08:08:45;17.90;75.10
11214;DHT22;5664;48.606;13.456;2023-05-20T08:11:10;17.90;75.20
11214;DHT22;5664;48.606;13.456;2023-05-20T08:13:36;18.00;75.60
11214;DHT22;5664;48.606;13.456;2023-05-20T08:16:01;18.00;75.60
11214;DHT22;5664;48.606;13.456;2023-05-20T08:18:33;18.00;75.50
11214;DHT22;5664;48.606;13.456;2023-05-20T08:21:00;18.00;75.50
11214;DHT22;5664;48.606;13.456;2023-05-20T08:23:26;18.10;75.70
11214;DHT22;5664;48.606;13.456;2023-05-20T08:25:52;18.10;75.70
11214;DHT22;5664;48.606;13.456;2023-05-20T08:28:17;18.20;75.60
11214;DHT22;5664;48.606;13.456;2023-05-20T08:30:43;18.20;75.60
11214;DHT22;5664;48.606;13.456;2023-05-20T08:33:08;18.20;75.60
11214;DHT22;5664;48.606;13.456;2023-05-20T08:35:34;18.20;75.70
11214;DHT22;5664;48.606;13.456;2023-05-20T08:38:00;18.20;75.70
11214;DHT22;5664;48.606;13.456;2023-05-20T08:40:26;18.20;75.60
11214;DHT22;5664;48.606;13.456;2023-05-20T08:42:51;18.30;75.60
11214;DHT22;5664;48.606;13.456;2023-05-20T08:45:18;18.30;75.50
11214;DHT22;5664;48.606;13.456;2023-05-20T08:47:44;18.20;75.30
11214;DHT22;5664;48.606;13.456;2023-05-20T08:50:10;18.20;75.30
11214;DHT22;5664;48.606;13.456;2023-05-20T08:52:37;18.20;75.20
11214;DHT22;5664;48.606;13.456;2023-05-20T08:55:06;18.20;75.30
11214;DHT22;5664;48.606;13.456;2023-05-20T08:57:34;18.20;75.60
11214;DHT22;5664;48.606;13.456;2023-05-20T09:00:01;18.30;75.70
11214;DHT22;5664;48.606;13.456;2023-05-20T09:02:35;18.30;75.60
11214;DHT22;5664;48.606;13.456;2023-05-20T09:05:00;18.30;75.60
11214;DHT22;5664;48.606;13.456;2023-05-20T09:07:26;18.30;75.50
11214;DHT22;5664;48.606;13.456;2023-05-20T09:09:52;18.30;75.50
11214;DHT22;5664;48.606;13.456;2023-05-20T09:12:19;18.30;75.50
11214;DHT22;5664;48.606;13.456;2023-05-20T09:14:44;18.20;75.40
11214;DHT22;5664;48.606;13.456;2023-05-20T09:17:10;18.20;76.20
11214;DHT22;5664;48.606;13.456;2023-05-20T09:19:35;18.20;75.30
11214;DHT22;5664;48.606;13.456;2023-05-20T09:22:01;18.20;75.30
11214;DHT22;5664;48.606;13.456;2023-05-20T09:24:28;18.20;75.10
11214;DHT22;5664;48.606;13.456;2023-05-20T09:26:53;18.20;75.00
11214;DHT22;5664;48.606;13.456;2023-05-20T09:29:19;18.20;74.90
11214;DHT22;5664;48.606;13.456;2023-05-20T09:31:46;18.20;74.80
11214;DHT22;5664;48.606;13.456;2023-05-20T09:34:11;18.10;74.60
11214;DHT22;5664;48.606;13.456;2023-05-20T09:36:37;18.10;74.50
11214;DHT22;5664;48.606;13.456;2023-05-20T09:39:03;18.10;74.40
11214;DHT22;5664;48.606;13.456;2023-05-20T09:41:48;18.10;74.20
11214;DHT22;5664;48.606;13.456;2023-05-20T09:44:15;18.10;74.20
11214;DHT22;5664;48.606;13.456;2023-05-20T09:46:40;18.10;74.10
11214;DHT22;5664;48.606;13.456;2023-05-20T09:49:06;18.10;74.00
11214;DHT22;5664;48.606;13.456;2023-05-20T09:51:32;18.10;73.90
11214;DHT22;5664;48.606;13.456;2023-05-20T09:53:58;18.10;73.90
11214;DHT22;5664;48.606;13.456;2023-05-20T09:56:24;18.10;73.90
11214;DHT22;5664;48.606;13.456;2023-05-20T09:58:49;18.10;73.70
11214;DHT22;5664;48.606;13.456;2023-05-20T10:01:15;18.10;73.70
11214;DHT22;5664;48.606;13.456;2023-05-20T10:03:41;18.10;73.60
11214;DHT22;5664;48.606;13.456;2023-05-20T10:08:41;18.10;73.50
11214;DHT22;5664;48.606;13.456;2023-05-20T10:11:13;18.10;73.50
11214;DHT22;5664;48.606;13.456;2023-05-20T10:18:52;18.10;73.40
11214;DHT22;5664;48.606;13.456;2023-05-20T10:21:20;18.00;73.30
11214;DHT22;5664;48.606;13.456;2023-05-20T10:23:48;18.10;73.40
11214;DHT22;5664;48.606;13.456;2023-05-20T10:26:14;18.10;73.30
11214;DHT22;5664;48.606;13.456;2023-05-20T10:28:39;18.10;73.30
11214;DHT22;5664;48.606;13.456;2023-05-20T10:31:19;18.10;73.20
11214;DHT22;5664;48.606;13.456;2023-05-20T10:33:45;18.00;73.10
11214;DHT22;5664;48.606;13.456;2023-05-20T10:36:21;18.10;73.20
11214;DHT22;5664;48.606;13.456;2023-05-20T10:38:51;18.10;73.10
11214;DHT22;5664;48.606;13.456;2023-05-20T10:41:19;18.00;73.00
11214;DHT22;5664;48.606;13.456;2023-05-20T10:43:45;18.10;73.00
11214;DHT22;5664;48.606;13.456;2023-05-20T10:46:16;18.00;72.90
11214;DHT22;5664;48.606;13.456;2023-05-20T10:48:42;18.10;72.90
11214;DHT22;5664;48.606;13.456;2023-05-20T10:51:10;18.00;72.80
11214;DHT22;5664;48.606;13.456;2023-05-20T10:53:38;18.00;72.70
11214;DHT22;5664;48.606;13.456;2023-05-20T10:56:04;18.00;72.70
11214;DHT22;5664;48.606;13.456;2023-05-20T10:58:39;18.00;72.70
11214;DHT22;5664;48.606;13.456;2023-05-20T11:01:04;18.10;72.80
11214;DHT22;5664;48.606;13.456;2023-05-20T11:03:30;18.10;72.80
11214;DHT22;5664;48.606;13.456;2023-05-20T11:05:57;18.00;72.60
11214;DHT22;5664;48.606;13.456;2023-05-20T11:08:22;18.00;72.70
11214;DHT22;5664;48.606;13.456;2023-05-20T11:10:51;18.00;72.60
11214;DHT22;5664;48.606;13.456;2023-05-20T11:13:17;18.00;72.70
11214;DHT22;5664;48.606;13.456;2023-05-20T11:15:42;18.00;72.60
11214;DHT22;5664;48.606;13.456;2023-05-20T11:18:09;18.00;72.60
11214;DHT22;5664;48.606;13.456;2023-05-20T11:20:34;18.00;72.60
11214;DHT22;5664;48.606;13.456;2023-05-20T11:23:01;18.00;72.60
11214;DHT22;5664;48.606;13.456;2023-05-20T11:25:27;18.00;72.60
11214;DHT22;5664;48.606;13.456;2023-05-20T11:27:53;18.00;72.60
11214;DHT22;5664;48.606;13.456;2023-05-20T11:30:18;18.00;72.60
11214;DHT22;5664;48.606;13.456;2023-05-20T11:32:57;18.10;72.70
11214;DHT22;5664;48.606;13.456;2023-05-20T11:35:24;18.00;72.70
11214;DHT22;5664;48.606;13.456;2023-05-20T11:37:57;18.00;72.80
11214;DHT22;5664;48.606;13.456;2023-05-20T11:40:25;18.00;72.80
11214;DHT22;5664;48.606;13.456;2023-05-20T11:42:52;18.00;72.80
11214;DHT22;5664;48.606;13.456;2023-05-20T11:45:17;18.10;72.90
11214;DHT22;5664;48.606;13.456;2023-05-20T11:47:43;18.00;72.80
11214;DHT22;5664;48.606;13.456;2023-05-20T11:50:08;18.00;72.70
11214;DHT22;5664;48.606;13.456;2023-05-20T11:52:34;18.00;72.70
11214;DHT22;5664;48.606;13.456;2023-05-20T11:54:59;18.00;72.60
11214;DHT22;5664;48.606;13.456;2023-05-20T11:57:25;18.00;72.60
11214;DHT22;5664;48.606;13.456;2023-05-20T11:59:50;18.00;72.50
11214;DHT22;5664;48.606;13.456;2023-05-20T12:02:16;18.00;72.40
11214;DHT22;5664;48.606;13.456;2023-05-20T12:04:41;18.00;72.30
11214;DHT22;5664;48.606;13.456;2023-05-20T12:07:07;18.00;72.20
11214;DHT22;5664;48.606;13.456;2023-05-20T12:09:34;18.00;72.10
11214;DHT22;5664;48.606;13.456;2023-05-20T12:11:59;18.00;72.10
11214;DHT22;5664;48.606;13.456;2023-05-20T12:14:25;18.00;72.00
11214;DHT22;5664;48.606;13.456;2023-05-20T12:16:50;18.00;72.00
11214;DHT22;5664;48.606;13.456;2023-05-20T12:19:18;18.00;72.00
11214;DHT22;5664;48.606;13.456;2023-05-20T12:21:43;18.00;71.90
11214;DHT22;5664;48.606;13.456;2023-05-20T12:24:11;18.00;72.00
11214;DHT22;5664;48.606;13.456;2023-05-20T12:26:37;18.00;71.90
11214;DHT22;5664;48.606;13.456;2023-05-20T12:29:02;18.00;71.90
11214;DHT22;5664;48.606;13.456;2023-05-20T12:31:28;18.00;71.90
11214;DHT22;5664;48.606;13.456;2023-05-20T12:33:53;18.00;71.80
11214;DHT22;5664;48.606;13.456;2023-05-20T12:36:18;18.00;71.80
11214;DHT22;5664;48.606;13.456;2023-05-20T12:38:44;18.00;71.80
11214;DHT22;5664;48.606;13.456;2023-05-20T12:41:09;18.00;71.80
11214;DHT22;5664;48.606;13.456;2023-05-20T12:43:35;18.00;71.80
11214;DHT22;5664;48.606;13.456;2023-05-20T12:46:03;18.00;71.80
11214;DHT22;5664;48.606;13.456;2023-05-20T12:48:30;18.00;72.60
11214;DHT22;5664;48.606;13.456;2023-05-20T12:50:55;17.90;71.70
11214;DHT22;5664;48.606;13.456;2023-05-20T12:53:20;18.00;71.80
11214;DHT22;5664;48.606;13.456;2023-05-20T12:55:46;18.10;71.90
11214;DHT22;5664;48.606;13.456;2023-05-20T12:58:11;18.10;71.90
11214;DHT22;5664;48.606;13.456;2023-05-20T13:00:37;18.10;71.90
11214;DHT22;5664;48.606;13.456;2023-05-20T13:03:02;18.00;71.80
11214;DHT22;5664;48.606;13.456;2023-05-20T13:05:28;18.00;71.80
11214;DHT22;5664;48.606;13.456;2023-05-20T13:07:53;18.10;72.00
11214;DHT22;5664;48.606;13.456;2023-05-20T13:10:19;18.00;71.80
11214;DHT22;5664;48.606;13.456;2023-05-20T13:12:44;18.00;71.80
11214;DHT22;5664;48.606;13.456;2023-05-20T13:15:11;18.10;71.90
11214;DHT22;5664;48.606;13.456;2023-05-20T13:17:37;18.00;71.80
11214;DHT22;5664;48.606;13.456;2023-05-20T13:20:03;18.10;71.80
11214;DHT22;5664;48.606;13.456;2023-05-20T13:22:28;18.00;71.60
11214;DHT22;5664;48.606;13.456;2023-05-20T13:24:54;18.10;71.60
11214;DHT22;5664;48.606;13.456;2023-05-20T13:27:19;18.00;71.40
11214;DHT22;5664;48.606;13.456;2023-05-20T13:29:45;18.10;71.40
11214;DHT22;5664;48.606;13.456;2023-05-20T13:32:10;18.00;71.20
11214;DHT22;5664;48.606;13.456;2023-05-20T13:34:36;18.00;71.20
11214;DHT22;5664;48.606;13.456;2023-05-20T13:37:02;18.10;71.30
11214;DHT22;5664;48.606;13.456;2023-05-20T13:39:28;18.00;71.10
11214;DHT22;5664;48.606;13.456;2023-05-20T13:41:53;18.00;71.30
11214;DHT22;5664;48.606;13.456;2023-05-20T13:44:19;18.00;71.10
11214;DHT22;5664;48.606;13.456;2023-05-20T13:46:45;18.00;71.10
11214;DHT22;5664;48.606;13.456;2023-05-20T13:49:10;18.00;71.10
11214;DHT22;5664;48.606;13.456;2023-05-20T13:51:35;18.10;71.20
11214;DHT22;5664;48.606;13.456;2023-05-20T13:54:02;18.10;71.20
11214;DHT22;5664;48.606;13.456;2023-05-20T13:56:28;18.10;71.20
11214;DHT22;5664;48.606;13.456;2023-05-20T13:58:53;18.00;71.20
11214;DHT22;5664;48.606;13.456;2023-05-20T14:01:19;18.10;71.30
11214;DHT22;5664;48.606;13.456;2023-05-20T14:03:44;18.10;71.20
11214;DHT22;5664;48.606;13.456;2023-05-20T14:06:10;18.10;71.20
11214;DHT22;5664;48.606;13.456;2023-05-20T14:08:36;18.00;71.10
11214;DHT22;5664;48.606;13.456;2023-05-20T14:11:01;18.00;71.10
11214;DHT22;5664;48.606;13.456;2023-05-20T14:13:27;18.10;71.20
11214;DHT22;5664;48.606;13.456;2023-05-20T14:15:52;18.10;71.20
11214;DHT22;5664;48.606;13.456;2023-05-20T14:18:21;18.10;71.20
11214;DHT22;5664;48.606;13.456;2023-05-20T14:20:46;18.00;71.10
11214;DHT22;5664;48.606;13.456;2023-05-20T14:23:12;18.00;71.10
11214;DHT22;5664;48.606;13.456;2023-05-20T14:25:38;18.00;71.20
11214;DHT22;5664;48.606;13.456;2023-05-20T14:28:03;18.00;71.20
11214;DHT22;5664;48.606;13.456;2023-05-20T14:30:29;18.00;71.30
11214;DHT22;5664;48.606;13.456;2023-05-20T14:32:55;18.00;71.40
11214;DHT22;5664;48.606;13.456;2023-05-20T14:35:20;17.80;71.40
11214;DHT22;5664;48.606;13.456;2023-05-20T14:37:46;18.10;71.60
11214;DHT22;5664;48.606;13.456;2023-05-20T14:40:11;18.00;71.60
11214;DHT22;5664;48.606;13.456;2023-05-20T14:42:37;18.10;71.80
11214;DHT22;5664;48.606;13.456;2023-05-20T14:45:02;18.00;71.70
11214;DHT22;5664;48.606;13.456;2023-05-20T14:47:28;18.10;72.00
11214;DHT22;5664;48.606;13.456;2023-05-20T14:49:53;18.00;71.90
11214;DHT22;5664;48.606;13.456;2023-05-20T14:52:19;18.10;72.20
11214;DHT22;5664;48.606;13.456;2023-05-20T14:54:44;18.10;72.20
11214;DHT22;5664;48.606;13.456;2023-05-20T14:57:10;18.20;72.30
11214;DHT22;5664;48.606;13.456;2023-05-20T14:59:35;18.20;72.40
11214;DHT22;5664;48.606;13.456;2023-05-20T15:02:01;18.20;72.40
11214;DHT22;5664;48.606;13.456;2023-05-20T15:04:27;18.20;72.30
11214;DHT22;5664;48.606;13.456;2023-05-20T15:06:52;18.30;72.20
11214;DHT22;5664;48.606;13.456;2023-05-20T15:09:18;18.30;72.00
11214;DHT22;5664;48.606;13.456;2023-05-20T15:11:43;18.30;71.80
11214;DHT22;5664;48.606;13.456;2023-05-20T15:14:09;18.40;71.80
11214;DHT22;5664;48.606;13.456;2023-05-20T15:16:34;18.30;71.70
11214;DHT22;5664;48.606;13.456;2023-05-20T15:19:00;18.30;71.70
11214;DHT22;5664;48.606;13.456;2023-05-20T15:21:25;18.30;71.70
11214;DHT22;5664;48.606;13.456;2023-05-20T15:23:51;18.20;71.70
11214;DHT22;5664;48.606;13.456;2023-05-20T15:26:16;18.20;71.70
11214;DHT22;5664;48.606;13.456;2023-05-20T15:28:42;18.20;71.70